Time;durP1;ratioP1;P1;durP2;ratioP2;P2;SDS_P1;SDS_P2;PMS_P1;PMS_P2;Temp;Humidity;BMP_temperature;BMP_pressure;BME280_temperature;BME280_humidity;BME280_pressure;Samples;Min_cycle;Max_cycle;Signal;HPM_P1;HPM_P2
2023/10/15 00:01:52;;;;;;;3.15;0.30;;;7.00;99.90;;;;;;4955370;28;20022;-86
2023/10/15 00:04:18;;;;;;;2.08;0.20;;;7.00;99.90;;;;;;4966454;28;20392;-84
2023/10/15 00:06:43;;;;;;;1.85;0.20;;;7.00;99.90;;;;;;4975040;28;20082;-88
2023/10/15 00:09:09;;;;;;;4.13;0.20;;;7.00;99.90;;;;;;4947727;28;20022;-84
2023/10/15 00:11:35;;;;;;;2.67;0.20;;;7.00;99.90;;;;;;4948095;28;20093;-84
2023/10/15 00:14:04;;;;;;;2.05;0.20;;;7.00;99.90;;;;;;4932886;28;20062;-84
2023/10/15 00:16:31;;;;;;;1.58;0.15;;;7.00;99.90;;;;;;4958220;28;20069;-83
2023/10/15 00:18:57;;;;;;;1.83;0.13;;;7.00;99.90;;;;;;4950439;28;20041;-84
2023/10/15 00:21:23;;;;;;;2.15;0.30;;;7.00;99.90;;;;;;4952769;28;20051;-83
2023/10/15 00:23:48;;;;;;;1.85;0.17;;;7.00;99.90;;;;;;4935497;28;20027;-83
2023/10/15 00:26:15;;;;;;;1.50;0.10;;;7.00;99.90;;;;;;4948688;28;20041;-84
2023/10/15 00:28:47;;;;;;;2.45;0.30;;;6.90;99.90;;;;;;4950254;28;20042;-82
2023/10/15 00:31:16;;;;;;;2.20;0.30;;;6.90;99.90;;;;;;4950642;28;20031;-84
2023/10/15 00:33:46;;;;;;;1.17;0.10;;;7.00;99.90;;;;;;4951935;28;20027;-85
2023/10/15 00:36:15;;;;;;;0.75;0.10;;;7.00;99.90;;;;;;4966236;28;20031;-83
2023/10/15 00:38:45;;;;;;;1.15;0.10;;;7.00;99.90;;;;;;4951345;28;20035;-84
2023/10/15 00:41:13;;;;;;;3.15;0.10;;;7.00;99.90;;;;;;4947809;28;20110;-84
2023/10/15 00:43:50;;;;;;;1.63;0.10;;;7.00;99.90;;;;;;4949069;28;20388;-82
2023/10/15 00:46:18;;;;;;;1.27;0.10;;;7.00;99.90;;;;;;4931466;28;20051;-86
2023/10/15 00:48:45;;;;;;;1.67;0.05;;;7.00;99.90;;;;;;4946216;28;20456;-84
2023/10/15 00:51:13;;;;;;;0.60;0.10;;;7.00;99.90;;;;;;4932697;28;20093;-84
2023/10/15 00:53:49;;;;;;;1.65;0.10;;;7.00;99.90;;;;;;4949826;28;20035;-91
2023/10/15 00:56:18;;;;;;;2.10;0.30;;;7.00;99.90;;;;;;4972856;28;20030;-84
2023/10/15 00:59:07;;;;;;;3.60;0.20;;;7.00;99.90;;;;;;4963469;28;20027;-88
2023/10/15 01:01:42;;;;;;;2.92;0.30;;;7.00;99.90;;;;;;4948620;28;20062;-84
2023/10/15 01:04:15;;;;;;;1.10;0.20;;;7.00;99.90;;;;;;4951458;28;20404;-91
2023/10/15 01:06:46;;;;;;;2.22;0.20;;;7.00;99.90;;;;;;4961306;28;20563;-86
2023/10/15 01:09:46;;;;;;;4.03;0.30;;;7.00;99.90;;;;;;4949040;28;20493;-86
2023/10/15 01:15:09;;;;;;;1.92;0.17;;;7.10;99.90;;;;;;4876322;29;20065;-89
2023/10/15 01:17:38;;;;;;;2.40;0.10;;;7.10;99.90;;;;;;4902408;29;20134;-87
2023/10/15 01:20:09;;;;;;;1.45;0.10;;;7.10;99.90;;;;;;4877552;29;20037;-88
2023/10/15 01:22:39;;;;;;;0.43;0.00;;;7.00;99.90;;;;;;4877618;29;20065;-85
2023/10/15 01:25:24;;;;;;;0.75;0.10;;;7.10;99.90;;;;;;4880994;29;20136;-86
2023/10/15 01:27:54;;;;;;;0.30;0.00;;;7.00;99.90;;;;;;4886098;29;20041;-87
2023/10/15 01:30:24;;;;;;;;;;;7.10;99.90;;;;;;4899442;29;20032;-91
2023/10/15 01:32:50;;;;;;;0.53;0.00;;;7.10;99.90;;;;;;4876899;29;20666;-85
2023/10/15 01:35:19;;;;;;;0.93;0.03;;;7.10;99.90;;;;;;4900501;29;20728;-84
2023/10/15 01:37:58;;;;;;;1.98;0.10;;;7.10;99.90;;;;;;4886442;29;20066;-84
2023/10/15 01:40:39;;;;;;;0.90;0.00;;;7.10;99.90;;;;;;4892723;29;20033;-84
2023/10/15 01:43:14;;;;;;;0.40;0.00;;;7.10;99.90;;;;;;4899911;29;20032;-88
2023/10/15 01:45:47;;;;;;;1.00;0.00;;;7.10;99.90;;;;;;4901125;28;20035;-83
2023/10/15 01:48:30;;;;;;;1.02;0.00;;;7.10;99.90;;;;;;4968798;28;20352;-88
2023/10/15 01:51:06;;;;;;;1.08;0.00;;;7.10;99.90;;;;;;4970655;28;20011;-84
2023/10/15 01:53:34;;;;;;;1.13;0.28;;;7.10;99.90;;;;;;4966749;28;20037;-88
2023/10/15 01:56:04;;;;;;;0.65;0.00;;;7.10;99.90;;;;;;4951369;28;20128;-84
2023/10/15 01:58:33;;;;;;;0.90;0.00;;;7.10;99.90;;;;;;4936329;28;20088;-88
2023/10/15 02:01:13;;;;;;;0.70;0.10;;;7.10;99.90;;;;;;4981020;28;20564;-88
2023/10/15 02:03:42;;;;;;;0.95;0.10;;;7.00;99.90;;;;;;4967501;28;20133;-84
2023/10/15 02:06:08;;;;;;;0.68;0.00;;;7.00;99.90;;;;;;4968720;28;20023;-88
2023/10/15 02:08:39;;;;;;;0.85;0.00;;;7.00;99.90;;;;;;4968211;28;20026;-85
2023/10/15 02:11:15;;;;;;;0.68;0.05;;;7.00;99.90;;;;;;4938364;28;20018;-84
2023/10/15 02:13:44;;;;;;;1.70;0.10;;;7.00;99.90;;;;;;4951536;28;20050;-85
2023/10/15 02:16:15;;;;;;;0.13;0.00;;;7.00;99.90;;;;;;4976582;28;20046;-85
2023/10/15 02:18:44;;;;;;;2.25;0.10;;;7.00;99.90;;;;;;4934663;28;20409;-86
2023/10/15 02:21:16;;;;;;;2.17;0.10;;;7.00;99.90;;;;;;4952569;28;20166;-86
2023/10/15 02:23:50;;;;;;;1.50;0.10;;;7.10;99.90;;;;;;4954494;28;20038;-85
2023/10/15 02:26:18;;;;;;;1.42;0.10;;;7.10;99.90;;;;;;4973910;28;20467;-85
2023/10/15 02:28:44;;;;;;;0.60;0.05;;;7.10;99.90;;;;;;4953308;28;20130;-85
2023/10/15 02:33:35;;;;;;;1.27;0.10;;;7.20;99.90;;;;;;4968703;28;20041;-84
2023/10/15 02:36:07;;;;;;;0.55;0.03;;;7.10;99.90;;;;;;4931567;28;20428;-87
2023/10/15 02:38:52;;;;;;;1.10;0.10;;;7.10;99.90;;;;;;4954472;28;20035;-84
2023/10/15 02:41:26;;;;;;;0.65;0.10;;;7.20;99.90;;;;;;4963675;28;20081;-87
2023/10/15 02:43:54;;;;;;;2.05;0.28;;;7.20;99.90;;;;;;4952262;28;20027;-87
2023/10/15 02:46:25;;;;;;;2.15;0.10;;;7.20;99.90;;;;;;4935103;28;20531;-87
2023/10/15 02:48:54;;;;;;;1.17;0.10;;;7.20;99.90;;;;;;4934833;28;20569;-88
2023/10/15 02:51:24;;;;;;;0.35;0.00;;;7.20;99.90;;;;;;4967439;28;20049;-85
2023/10/15 02:54:03;;;;;;;1.00;0.10;;;7.20;99.90;;;;;;4954346;28;20177;-90
2023/10/15 02:56:29;;;;;;;1.20;0.00;;;7.20;99.90;;;;;;4958613;28;20054;-85
2023/10/15 02:58:54;;;;;;;1.88;0.10;;;7.20;99.90;;;;;;4949018;28;20388;-84
2023/10/15 03:01:20;;;;;;;2.97;0.25;;;7.20;99.90;;;;;;4962933;28;20495;-88
2023/10/15 03:03:50;;;;;;;0.38;0.05;;;7.30;99.90;;;;;;4951571;28;20369;-88
2023/10/15 03:06:26;;;;;;;0.35;0.00;;;7.30;99.90;;;;;;4953947;28;20073;-84
2023/10/15 03:08:52;;;;;;;1.40;0.10;;;7.30;99.90;;;;;;4958870;28;20026;-87
2023/10/15 03:11:20;;;;;;;0.57;0.10;;;7.30;99.90;;;;;;4951550;28;20034;-85
2023/10/15 03:13:50;;;;;;;0.55;0.00;;;7.30;99.90;;;;;;4952628;28;20122;-84
2023/10/15 03:16:18;;;;;;;0.75;0.00;;;7.30;99.90;;;;;;4948706;28;20404;-86
2023/10/15 03:18:48;;;;;;;0.43;0.00;;;7.30;99.90;;;;;;4954330;28;20027;-89
2023/10/15 03:21:19;;;;;;;0.93;0.00;;;7.30;99.90;;;;;;4969131;28;20051;-85
2023/10/15 03:23:48;;;;;;;0.40;0.00;;;7.20;99.90;;;;;;4967103;28;20030;-87
2023/10/15 03:26:17;;;;;;;1.13;0.00;;;7.20;99.90;;;;;;4953751;28;20448;-85
2023/10/15 03:28:51;;;;;;;0.32;0.00;;;7.10;99.90;;;;;;4936534;28;20026;-85
2023/10/15 03:31:25;;;;;;;0.15;0.00;;;7.10;99.90;;;;;;4959986;28;20086;-86
2023/10/15 03:36:29;;;;;;;0.47;0.00;;;7.10;99.90;;;;;;4968425;28;20130;-86
2023/10/15 03:38:57;;;;;;;0.22;0.00;;;7.10;99.90;;;;;;4950829;28;20027;-85
2023/10/15 03:41:27;;;;;;;0.52;0.00;;;7.10;99.90;;;;;;4953722;28;20126;-85
2023/10/15 03:43:53;;;;;;;0.03;0.00;;;7.10;99.90;;;;;;4958371;28;20514;-85
2023/10/15 03:46:19;;;;;;;0.00;0.00;;;7.10;99.90;;;;;;4951948;28;20129;-88
2023/10/15 03:48:49;;;;;;;0.30;0.00;;;7.10;99.90;;;;;;4959681;28;20084;-85
2023/10/15 03:51:24;;;;;;;0.20;0.00;;;7.10;99.90;;;;;;4936413;28;20051;-86
2023/10/15 03:53:49;;;;;;;0.70;0.00;;;7.00;99.90;;;;;;4950454;28;20357;-88
2023/10/15 03:56:28;;;;;;;0.28;0.10;;;7.00;99.90;;;;;;4950959;28;20097;-85
2023/10/15 03:58:54;;;;;;;0.47;0.00;;;7.00;99.90;;;;;;4950418;28;20022;-84
2023/10/15 04:01:21;;;;;;;0.20;0.00;;;7.00;99.90;;;;;;4963490;28;20023;-88
2023/10/15 04:03:47;;;;;;;0.85;0.00;;;7.00;99.90;;;;;;4950331;28;20118;-85
2023/10/15 04:06:15;;;;;;;1.63;0.10;;;7.00;99.90;;;;;;4933854;28;20038;-87
2023/10/15 04:09:09;;;;;;;2.70;0.10;;;7.00;99.90;;;;;;4935703;28;20428;-87
2023/10/15 04:11:44;;;;;;;1.17;0.10;;;7.00;99.90;;;;;;4958194;28;20038;-88
2023/10/15 04:16:41;;;;;;;2.17;0.10;;;7.10;99.90;;;;;;4951359;28;20051;-88
2023/10/15 04:19:08;;;;;;;1.00;0.10;;;7.10;99.90;;;;;;4952767;28;20432;-88
2023/10/15 04:21:38;;;;;;;1.80;0.10;;;7.10;99.90;;;;;;4935647;28;20043;-83
2023/10/15 04:24:06;;;;;;;1.52;0.10;;;7.20;99.90;;;;;;4953158;28;20034;-85
2023/10/15 04:26:35;;;;;;;0.93;0.10;;;7.30;99.90;;;;;;4947017;28;20023;-87
2023/10/15 04:29:15;;;;;;;1.92;0.25;;;7.30;99.90;;;;;;4933777;28;20027;-87
2023/10/15 04:31:44;;;;;;;0.82;0.20;;;7.20;99.90;;;;;;4949361;28;20045;-88
2023/10/15 04:34:16;;;;;;;1.70;0.10;;;7.10;99.90;;;;;;4958990;28;20027;-86
2023/10/15 04:36:43;;;;;;;0.25;0.00;;;6.80;99.90;;;;;;4932178;28;20427;-85
2023/10/15 04:39:12;;;;;;;0.47;0.10;;;6.80;99.90;;;;;;4935122;28;20093;-85
2023/10/15 04:41:39;;;;;;;0.75;0.00;;;6.70;99.90;;;;;;4947841;28;20554;-85
2023/10/15 04:44:05;;;;;;;0.45;0.00;;;6.70;99.90;;;;;;4950035;28;20034;-83
2023/10/15 04:46:40;;;;;;;0.40;0.00;;;6.70;99.90;;;;;;4951715;28;20038;-83
2023/10/15 04:49:07;;;;;;;0.30;0.00;;;6.70;99.90;;;;;;4947229;28;20106;-84
2023/10/15 04:51:42;;;;;;;0.00;0.00;;;6.90;99.90;;;;;;4952925;28;20054;-84
2023/10/15 04:54:08;;;;;;;0.00;0.00;;;6.80;99.90;;;;;;4938036;28;20034;-85
2023/10/15 04:56:34;;;;;;;0.10;0.00;;;6.80;99.90;;;;;;4954981;28;20043;-85
2023/10/15 04:59:00;;;;;;;0.40;0.00;;;6.80;99.90;;;;;;4950475;28;20114;-86
2023/10/15 05:01:25;;;;;;;1.30;0.00;;;6.80;99.90;;;;;;4937093;28;20062;-86
2023/10/15 05:03:51;;;;;;;0.22;0.00;;;6.70;99.90;;;;;;4937399;28;20035;-88
2023/10/15 05:06:17;;;;;;;0.13;0.00;;;6.60;99.90;;;;;;4965018;28;20035;-88
2023/10/15 05:08:47;;;;;;;0.20;0.00;;;6.60;99.90;;;;;;4936823;28;20026;-86
2023/10/15 05:11:13;;;;;;;0.52;0.00;;;6.50;99.90;;;;;;4937304;28;20252;-89
2023/10/15 05:13:42;;;;;;;0.55;0.10;;;6.50;99.90;;;;;;4936632;28;20023;-86
2023/10/15 05:16:08;;;;;;;0.57;0.00;;;6.50;99.90;;;;;;4969953;28;20105;-86
2023/10/15 05:18:34;;;;;;;0.85;0.10;;;6.50;99.90;;;;;;4955254;28;20290;-84
2023/10/15 05:21:00;;;;;;;1.25;0.00;;;6.40;99.90;;;;;;4957781;28;20096;-86
2023/10/15 05:23:26;;;;;;;0.75;0.00;;;6.50;99.90;;;;;;4962131;28;20082;-87
2023/10/15 05:25:54;;;;;;;0.45;0.00;;;6.50;99.90;;;;;;4957628;28;20081;-86
2023/10/15 05:28:20;;;;;;;1.23;0.00;;;6.50;99.90;;;;;;4934780;28;20023;-84
2023/10/15 05:30:46;;;;;;;0.55;0.00;;;6.40;99.90;;;;;;4955646;28;20038;-85
2023/10/15 05:33:12;;;;;;;0.63;0.00;;;6.40;99.90;;;;;;4952218;28;20353;-87
2023/10/15 05:35:40;;;;;;;0.77;0.00;;;6.40;99.90;;;;;;4934414;28;20039;-85
2023/10/15 05:38:09;;;;;;;0.10;0.00;;;6.40;99.90;;;;;;4953548;28;20039;-87
2023/10/15 05:40:36;;;;;;;0.43;0.00;;;6.40;99.90;;;;;;4954092;28;20039;-85
2023/10/15 05:43:02;;;;;;;2.08;0.10;;;6.40;99.90;;;;;;4936148;28;20476;-84
2023/10/15 05:45:28;;;;;;;0.40;0.00;;;6.30;99.90;;;;;;4955463;28;20149;-84
2023/10/15 05:47:54;;;;;;;0.73;0.00;;;6.30;99.90;;;;;;4961160;28;20123;-89
2023/10/15 05:50:19;;;;;;;0.30;0.00;;;6.30;99.90;;;;;;4955842;28;20459;-89
2023/10/15 05:52:45;;;;;;;0.38;0.00;;;6.30;99.90;;;;;;4955236;28;20502;-86
2023/10/15 05:55:11;;;;;;;0.05;0.00;;;6.30;99.90;;;;;;4937302;28;20033;-86
2023/10/15 05:57:37;;;;;;;0.20;0.00;;;6.20;99.90;;;;;;4953926;28;20039;-89
2023/10/15 06:00:17;;;;;;;0.10;0.00;;;6.20;99.90;;;;;;4935075;28;20143;-88
2023/10/15 06:02:53;;;;;;;0.30;0.00;;;6.10;99.90;;;;;;4953287;28;20065;-85
2023/10/15 06:05:19;;;;;;;0.13;0.00;;;6.10;99.90;;;;;;4952799;28;20538;-85
2023/10/15 06:07:46;;;;;;;0.20;0.00;;;6.10;99.90;;;;;;4951205;28;20031;-84
2023/10/15 06:10:12;;;;;;;0.75;0.00;;;6.10;99.90;;;;;;4953458;28;20323;-86
2023/10/15 06:12:38;;;;;;;0.45;0.00;;;6.10;99.90;;;;;;4957245;28;20034;-86
2023/10/15 06:15:06;;;;;;;0.20;0.00;;;6.10;99.90;;;;;;4954758;28;20035;-85
2023/10/15 06:17:32;;;;;;;0.40;0.00;;;6.10;99.90;;;;;;4933617;28;20329;-85
2023/10/15 06:19:59;;;;;;;0.32;0.00;;;6.20;99.90;;;;;;4958872;28;20027;-86
2023/10/15 06:22:25;;;;;;;0.25;0.00;;;6.20;99.90;;;;;;4951399;28;20042;-85
2023/10/15 06:24:52;;;;;;;1.40;0.10;;;6.20;99.90;;;;;;4974540;28;20027;-84
2023/10/15 06:27:19;;;;;;;0.30;0.00;;;6.20;99.90;;;;;;4952303;28;20074;-85
2023/10/15 06:29:44;;;;;;;0.73;0.00;;;6.20;99.90;;;;;;4934621;28;20112;-86
2023/10/15 06:32:13;;;;;;;0.63;0.00;;;6.20;99.90;;;;;;4947808;28;20510;-85
2023/10/15 06:34:39;;;;;;;0.50;0.03;;;6.30;99.90;;;;;;4967729;28;20027;-84
2023/10/15 06:37:08;;;;;;;1.40;0.00;;;6.30;99.90;;;;;;4953657;28;20137;-86
2023/10/15 06:39:34;;;;;;;0.70;0.10;;;6.30;99.90;;;;;;4936529;28;20027;-88
2023/10/15 06:42:00;;;;;;;1.10;0.30;;;6.30;99.90;;;;;;4977243;28;20035;-87
2023/10/15 06:44:26;;;;;;;1.15;0.20;;;6.30;99.90;;;;;;4951150;28;20034;-85
2023/10/15 06:46:52;;;;;;;0.98;0.10;;;6.20;99.90;;;;;;4936580;28;20042;-86
2023/10/15 06:49:18;;;;;;;0.98;0.10;;;6.20;99.90;;;;;;4951623;28;20121;-86
2023/10/15 06:51:45;;;;;;;2.70;0.17;;;6.20;99.90;;;;;;4959368;28;20031;-85
2023/10/15 06:54:11;;;;;;;1.75;0.15;;;6.30;99.90;;;;;;4934179;28;20468;-87
2023/10/15 06:56:38;;;;;;;2.55;0.20;;;6.30;99.90;;;;;;4961564;28;20634;-88
2023/10/15 06:59:04;;;;;;;1.02;0.10;;;6.40;99.90;;;;;;4936461;28;20085;-86
2023/10/15 07:01:30;;;;;;;1.15;0.10;;;6.50;99.90;;;;;;4950971;28;20031;-85
2023/10/15 07:03:56;;;;;;;0.98;0.17;;;6.60;99.90;;;;;;4953515;28;20127;-88
2023/10/15 07:06:23;;;;;;;2.90;0.20;;;6.70;99.90;;;;;;4933243;28;20055;-89
2023/10/15 07:08:50;;;;;;;1.58;0.10;;;6.80;99.90;;;;;;4953646;28;20026;-86
2023/10/15 07:11:16;;;;;;;1.58;0.10;;;6.90;99.90;;;;;;4951492;28;20031;-87
2023/10/15 07:13:42;;;;;;;1.50;0.20;;;7.00;99.90;;;;;;4970612;28;20389;-86
2023/10/15 07:16:08;;;;;;;2.60;0.10;;;7.00;99.90;;;;;;4953061;28;20476;-88
2023/10/15 07:18:33;;;;;;;0.73;0.10;;;7.10;99.90;;;;;;4953948;28;20027;-88
2023/10/15 07:20:59;;;;;;;2.20;0.20;;;7.10;99.90;;;;;;4958806;28;20093;-87
2023/10/15 07:23:25;;;;;;;2.05;0.10;;;7.10;99.90;;;;;;4935702;28;20030;-86
2023/10/15 07:25:51;;;;;;;1.33;0.10;;;7.10;99.90;;;;;;4949846;28;20039;-89
2023/10/15 07:28:17;;;;;;;3.30;0.20;;;7.00;99.90;;;;;;4931261;28;20034;-84
2023/10/15 07:30:42;;;;;;;1.98;0.10;;;7.10;99.90;;;;;;4952004;28;20031;-86
2023/10/15 07:33:09;;;;;;;3.45;0.30;;;7.10;99.90;;;;;;4950265;28;20475;-86
2023/10/15 07:35:37;;;;;;;1.33;0.20;;;7.10;99.90;;;;;;4976776;28;20038;-87
2023/10/15 07:38:04;;;;;;;2.05;0.20;;;7.10;99.90;;;;;;4933678;28;20042;-86
2023/10/15 07:40:32;;;;;;;0.70;0.10;;;7.10;99.90;;;;;;4953057;28;20085;-86
2023/10/15 07:42:59;;;;;;;1.33;0.10;;;7.30;99.90;;;;;;4948601;28;20073;-88
2023/10/15 07:45:28;;;;;;;1.40;0.17;;;7.30;99.90;;;;;;4933374;28;20050;-88
2023/10/15 07:47:55;;;;;;;1.83;0.10;;;7.40;99.90;;;;;;4947314;28;20022;-85
2023/10/15 07:50:24;;;;;;;1.65;0.10;;;7.50;99.90;;;;;;4974934;28;20031;-86
2023/10/15 07:52:51;;;;;;;2.70;0.20;;;7.40;99.90;;;;;;4930589;28;20023;-86
2023/10/15 07:55:18;;;;;;;1.27;0.20;;;7.30;99.90;;;;;;4958763;28;20031;-85
2023/10/15 07:57:44;;;;;;;0.93;0.10;;;7.40;99.90;;;;;;4950489;28;20051;-86
2023/10/15 08:00:25;;;;;;;2.05;0.10;;;7.30;99.90;;;;;;4932444;28;20085;-87
2023/10/15 08:02:52;;;;;;;0.57;0.10;;;7.40;99.90;;;;;;4933824;28;20555;-86
2023/10/15 08:05:20;;;;;;;1.70;0.13;;;7.40;99.90;;;;;;4952253;28;20158;-86
2023/10/15 08:07:48;;;;;;;1.77;0.30;;;7.30;99.90;;;;;;4948932;28;20027;-86
2023/10/15 08:10:14;;;;;;;0.50;0.20;;;7.40;99.90;;;;;;4957023;28;20030;-86
2023/10/15 08:12:41;;;;;;;1.38;0.10;;;7.30;99.90;;;;;;4952078;28;20039;-89
2023/10/15 08:15:07;;;;;;;3.40;0.20;;;7.40;99.90;;;;;;4963876;28;20037;-87
2023/10/15 08:17:33;;;;;;;3.15;0.20;;;7.40;99.90;;;;;;4952324;28;20059;-86
2023/10/15 08:19:58;;;;;;;1.95;0.10;;;7.50;99.90;;;;;;4952451;28;20292;-86
2023/10/15 08:22:25;;;;;;;1.80;0.20;;;7.50;99.90;;;;;;4934899;28;20133;-88
2023/10/15 08:24:51;;;;;;;1.88;0.20;;;7.60;99.90;;;;;;4933038;28;20067;-88
2023/10/15 08:27:16;;;;;;;0.63;0.10;;;7.70;99.90;;;;;;4951936;28;20034;-86
2023/10/15 08:29:42;;;;;;;2.65;0.20;;;8.00;99.90;;;;;;4935453;28;20039;-84
2023/10/15 08:32:16;;;;;;;3.55;0.20;;;7.90;99.90;;;;;;4951695;28;20042;-88
2023/10/15 08:34:46;;;;;;;1.88;0.20;;;7.80;99.90;;;;;;4948953;28;20404;-87
2023/10/15 08:37:11;;;;;;;1.92;0.20;;;7.90;99.90;;;;;;4949661;28;20141;-87
2023/10/15 08:39:40;;;;;;;1.88;0.17;;;7.80;99.90;;;;;;4931869;28;20122;-87
2023/10/15 08:42:13;;;;;;;2.67;0.10;;;7.70;99.90;;;;;;4932066;28;20034;-87
2023/10/15 08:44:40;;;;;;;3.08;0.20;;;7.70;99.90;;;;;;4954695;28;20390;-87
2023/10/15 08:47:11;;;;;;;2.35;0.20;;;7.60;99.90;;;;;;4951918;28;20049;-87
2023/10/15 08:49:44;;;;;;;1.30;0.10;;;7.70;99.90;;;;;;4930604;28;20034;-89
2023/10/15 08:52:10;;;;;;;2.72;0.10;;;7.70;99.90;;;;;;4933997;28;20037;-87
2023/10/15 08:54:38;;;;;;;2.42;0.20;;;7.80;99.90;;;;;;4950303;28;20039;-87
2023/10/15 08:57:08;;;;;;;2.20;0.17;;;8.00;99.90;;;;;;4972433;28;20038;-87
2023/10/15 08:59:35;;;;;;;3.92;0.10;;;8.10;99.90;;;;;;4952720;28;20118;-88
2023/10/15 09:02:05;;;;;;;1.52;0.15;;;8.20;99.90;;;;;;4952254;28;20041;-87
2023/10/15 09:04:32;;;;;;;2.42;0.10;;;8.00;99.90;;;;;;4947581;28;20044;-87
2023/10/15 09:07:01;;;;;;;1.80;0.17;;;8.10;99.90;;;;;;4948150;28;20278;-88
2023/10/15 09:09:34;;;;;;;1.50;0.10;;;8.20;99.90;;;;;;4951375;28;20058;-86
2023/10/15 09:12:00;;;;;;;1.15;0.10;;;8.10;99.90;;;;;;4974951;28;20097;-86
2023/10/15 09:14:45;;;;;;;2.10;0.15;;;8.10;99.90;;;;;;4948798;28;20035;-85
2023/10/15 09:17:12;;;;;;;1.60;0.10;;;8.10;99.90;;;;;;4964583;28;20039;-86
2023/10/15 09:19:42;;;;;;;1.67;0.10;;;8.30;99.90;;;;;;4952256;28;20029;-86
2023/10/15 09:22:14;;;;;;;1.35;0.10;;;8.20;99.90;;;;;;4933499;28;20054;-86
2023/10/15 09:24:46;;;;;;;5.10;0.20;;;8.30;99.90;;;;;;4956784;28;20038;-86
2023/10/15 09:27:13;;;;;;;1.48;0.10;;;8.20;99.90;;;;;;4965416;28;20027;-87
2023/10/15 09:29:40;;;;;;;2.47;0.20;;;8.10;99.90;;;;;;4952783;28;20448;-88
2023/10/15 09:32:06;;;;;;;1.27;0.10;;;8.30;99.90;;;;;;4930989;28;20472;-87
2023/10/15 09:34:37;;;;;;;2.15;0.55;;;8.60;99.90;;;;;;4952531;28;20078;-86
2023/10/15 09:37:05;;;;;;;;;;;8.90;99.90;;;;;;4973863;28;20384;-88
2023/10/15 09:39:31;;;;;;;1.40;0.10;;;9.20;99.90;;;;;;4964443;28;19914;-89
2023/10/15 09:42:02;;;;;;;2.05;0.10;;;9.50;99.90;;;;;;4962749;28;20069;-88
2023/10/15 09:44:28;;;;;;;0.60;0.10;;;9.20;99.90;;;;;;4936467;28;20041;-89
2023/10/15 09:46:54;;;;;;;1.63;0.10;;;9.00;99.90;;;;;;4955254;28;20480;-89
2023/10/15 09:49:20;;;;;;;1.88;0.10;;;8.80;99.90;;;;;;4936572;28;20059;-88
2023/10/15 09:51:47;;;;;;;0.82;0.10;;;8.70;99.90;;;;;;4953319;28;20487;-88
2023/10/15 09:54:14;;;;;;;1.52;0.10;;;8.70;99.90;;;;;;4952275;28;20035;-86
2023/10/15 09:56:41;;;;;;;1.40;0.10;;;8.80;99.90;;;;;;4959606;28;20396;-88
2023/10/15 09:59:07;;;;;;;1.00;0.10;;;8.80;99.90;;;;;;4937633;28;20027;-91
2023/10/15 10:01:36;;;;;;;2.08;0.10;;;8.70;99.90;;;;;;4953298;28;20037;-87
2023/10/15 10:04:19;;;;;;;1.13;0.10;;;8.80;99.90;;;;;;4951755;28;20023;-89
2023/10/15 10:06:48;;;;;;;0.20;0.00;;;9.30;99.90;;;;;;4956146;28;20038;-88
2023/10/15 10:09:21;;;;;;;1.08;0.10;;;9.30;99.90;;;;;;4934500;28;20078;-88
2023/10/15 10:11:56;;;;;;;1.50;0.10;;;9.40;99.90;;;;;;4935566;28;20023;-90
2023/10/15 10:14:50;;;;;;;3.92;0.00;;;9.30;99.90;;;;;;4953407;28;20030;-88
2023/10/15 10:17:19;;;;;;;1.02;0.10;;;9.20;99.90;;;;;;4954339;28;20302;-86
2023/10/15 10:19:52;;;;;;;0.68;0.00;;;9.00;99.90;;;;;;4969118;28;20483;-87
2023/10/15 10:22:28;;;;;;;2.25;0.10;;;9.10;99.90;;;;;;4955405;28;20429;-87
2023/10/15 10:24:58;;;;;;;0.20;0.00;;;9.10;99.90;;;;;;4950376;28;20030;-87
2023/10/15 10:27:24;;;;;;;1.77;0.08;;;9.20;99.90;;;;;;4954665;28;20031;-87
2023/10/15 10:29:53;;;;;;;1.00;0.10;;;9.20;99.90;;;;;;4936967;28;20038;-87
2023/10/15 10:32:21;;;;;;;0.40;0.00;;;9.20;99.90;;;;;;4955604;28;20068;-88
2023/10/15 10:35:20;;;;;;;1.27;0.00;;;9.20;99.90;;;;;;4933469;28;20032;-89
2023/10/15 10:38:06;;;;;;;1.25;0.10;;;9.10;99.90;;;;;;4954321;28;20050;-89
2023/10/15 10:40:53;;;;;;;1.83;0.32;;;9.30;99.90;;;;;;4951169;28;20034;-89
2023/10/15 10:43:24;;;;;;;2.72;0.10;;;9.20;99.90;;;;;;4963532;28;20050;-89
2023/10/15 10:45:59;;;;;;;2.47;0.10;;;9.20;99.90;;;;;;4974638;28;20122;-89
2023/10/15 10:48:29;;;;;;;2.00;0.10;;;9.70;99.90;;;;;;4966662;28;20042;-89
2023/10/15 10:51:11;;;;;;;1.48;0.17;;;9.80;99.90;;;;;;4953178;28;20031;-88
2023/10/15 10:53:59;;;;;;;2.63;0.30;;;9.60;99.90;;;;;;4960700;28;20042;-88
2023/10/15 10:56:40;;;;;;;1.40;0.05;;;9.60;99.90;;;;;;4936546;28;20031;-88
2023/10/15 10:59:12;;;;;;;1.70;0.20;;;9.50;99.90;;;;;;4938839;28;20183;-89
2023/10/15 11:01:47;;;;;;;1.13;0.10;;;9.50;99.90;;;;;;4953520;28;20110;-88
2023/10/15 11:04:16;;;;;;;4.38;0.10;;;9.50;99.90;;;;;;4950545;28;20027;-88
2023/10/15 11:06:45;;;;;;;0.80;0.10;;;9.70;99.90;;;;;;4953748;28;20484;-90
2023/10/15 11:09:15;;;;;;;1.23;0.10;;;10.00;99.90;;;;;;4952175;28;20091;-87
2023/10/15 11:11:48;;;;;;;2.55;0.30;;;9.90;99.90;;;;;;4937749;28;20142;-87
2023/10/15 11:14:18;;;;;;;1.30;0.10;;;10.20;99.90;;;;;;4965664;28;20093;-89
2023/10/15 11:16:47;;;;;;;4.38;0.10;;;10.40;99.90;;;;;;4948905;28;20045;-87
2023/10/15 11:19:28;;;;;;;1.55;0.10;;;10.30;99.90;;;;;;4936543;28;20200;-88
2023/10/15 11:21:54;;;;;;;0.85;0.10;;;10.20;99.90;;;;;;4960230;28;20050;-89
2023/10/15 11:24:23;;;;;;;3.20;0.20;;;9.90;99.90;;;;;;4949879;28;20026;-87
2023/10/15 11:26:49;;;;;;;1.38;0.10;;;9.60;99.90;;;;;;4960316;28;20039;-87
2023/10/15 11:29:19;;;;;;;1.40;0.10;;;9.70;99.90;;;;;;4934005;28;20495;-89
2023/10/15 11:31:49;;;;;;;4.07;0.10;;;9.70;99.90;;;;;;4934127;28;20480;-89
2023/10/15 11:34:19;;;;;;;1.98;0.10;;;9.80;99.90;;;;;;4964804;28;20035;-87
2023/10/15 11:36:48;;;;;;;3.15;0.10;;;9.80;99.90;;;;;;4949286;28;20043;-89
2023/10/15 11:39:18;;;;;;;1.17;0.10;;;9.80;99.90;;;;;;4953020;28;20031;-87
2023/10/15 11:41:52;;;;;;;0.98;0.10;;;9.70;99.90;;;;;;4959578;28;20034;-87
2023/10/15 11:44:26;;;;;;;1.20;0.10;;;9.60;99.90;;;;;;4967029;28;20030;-88
2023/10/15 11:46:56;;;;;;;1.67;0.10;;;9.70;99.90;;;;;;4950240;28;20026;-88
2023/10/15 11:49:23;;;;;;;2.72;0.10;;;9.80;99.90;;;;;;4936097;28;20023;-87
2023/10/15 11:51:50;;;;;;;0.85;0.10;;;10.10;99.90;;;;;;4953304;28;20034;-87
2023/10/15 11:54:16;;;;;;;1.20;0.05;;;10.20;99.90;;;;;;4953430;28;20034;-87
2023/10/15 11:56:47;;;;;;;1.15;0.10;;;10.00;99.90;;;;;;4949668;28;20129;-88
2023/10/15 11:59:13;;;;;;;2.38;0.10;;;10.10;99.90;;;;;;4933786;28;20034;-89
2023/10/15 12:01:38;;;;;;;1.55;0.10;;;9.90;99.90;;;;;;4953054;28;20030;-88
2023/10/15 12:04:07;;;;;;;0.95;0.10;;;10.30;99.90;;;;;;4949755;28;20396;-85
2023/10/15 12:06:33;;;;;;;1.63;0.10;;;10.60;99.90;;;;;;4952714;28;20095;-88
2023/10/15 12:08:59;;;;;;;0.95;0.10;;;10.80;99.90;;;;;;4936080;28;20045;-88
2023/10/15 12:11:28;;;;;;;1.75;0.10;;;10.70;99.90;;;;;;4951781;28;20027;-87
2023/10/15 12:13:55;;;;;;;2.55;0.10;;;10.70;99.90;;;;;;4967432;28;20035;-90
2023/10/15 12:16:20;;;;;;;2.90;0.10;;;10.70;99.90;;;;;;4950482;28;20078;-89
2023/10/15 12:18:46;;;;;;;1.23;0.10;;;10.60;99.90;;;;;;4949600;28;20054;-89
2023/10/15 12:21:14;;;;;;;0.65;0.00;;;10.60;99.90;;;;;;4951815;28;20059;-87
2023/10/15 12:23:43;;;;;;;0.65;0.10;;;10.50;99.90;;;;;;4952818;28;20039;-89
2023/10/15 12:26:09;;;;;;;1.85;0.10;;;10.60;99.90;;;;;;4975444;28;20031;-90
2023/10/15 12:28:43;;;;;;;1.65;0.10;;;10.90;99.90;;;;;;4952007;28;20328;-89
2023/10/15 12:31:10;;;;;;;2.45;0.10;;;11.20;99.90;;;;;;4948920;28;20048;-90
2023/10/15 12:33:36;;;;;;;0.88;0.10;;;11.40;99.90;;;;;;4952496;28;20069;-89
2023/10/15 12:36:03;;;;;;;1.63;0.17;;;11.20;99.90;;;;;;4951961;28;20072;-89
2023/10/15 12:38:28;;;;;;;2.47;0.30;;;11.30;99.90;;;;;;4966042;28;20050;-88
2023/10/15 12:40:55;;;;;;;2.60;0.20;;;11.10;99.90;;;;;;4957803;28;20027;-90
2023/10/15 12:43:21;;;;;;;2.90;0.20;;;11.30;99.90;;;;;;4960214;28;20427;-89
2023/10/15 12:45:52;;;;;;;2.38;0.17;;;11.30;99.90;;;;;;4934305;28;20026;-87
2023/10/15 12:48:19;;;;;;;1.55;0.10;;;11.30;99.90;;;;;;4952662;28;20031;-90
2023/10/15 12:50:48;;;;;;;2.38;0.10;;;11.10;99.90;;;;;;4935817;28;20058;-89
2023/10/15 12:53:15;;;;;;;3.70;0.20;;;11.20;99.90;;;;;;4948663;28;20034;-88
2023/10/15 12:55:41;;;;;;;2.30;0.10;;;10.80;99.90;;;;;;4952304;28;20031;-87
2023/10/15 12:58:09;;;;;;;0.88;0.03;;;10.70;99.90;;;;;;4950016;28;20045;-86
2023/10/15 13:00:39;;;;;;;1.58;0.10;;;10.70;99.90;;;;;;4934519;28;20027;-87
2023/10/15 13:03:05;;;;;;;3.63;0.70;;;10.90;99.90;;;;;;4952308;28;20031;-87
2023/10/15 13:05:31;;;;;;;1.95;0.20;;;11.20;99.90;;;;;;4935117;28;20045;-89
2023/10/15 13:07:57;;;;;;;1.95;0.35;;;11.40;99.90;;;;;;4928449;28;20496;-89
2023/10/15 13:10:23;;;;;;;2.95;0.17;;;11.20;99.90;;;;;;4952212;28;20049;-89
2023/10/15 13:12:50;;;;;;;1.50;0.10;;;11.40;99.90;;;;;;4949337;28;20080;-87
2023/10/15 13:15:18;;;;;;;2.00;0.52;;;11.10;99.90;;;;;;4962534;28;20050;-87
2023/10/15 13:17:44;;;;;;;3.50;0.10;;;11.10;99.90;;;;;;4956672;28;20049;-88